sensor_id;sensor_type;location;lat;lon;timestamp;pressure;altitude;pressure_sealevel;temperature;humidity
49297;BME280;35163;48.878;18.040;2022-08-23T00:01:18;97972.44;;;17.17;100.00
49297;BME280;35163;48.878;18.040;2022-08-23T00:03:49;97975.25;;;17.14;100.00
49297;BME280;35163;48.878;18.040;2022-08-23T00:06:16;97974.91;;;17.06;100.00
49297;BME280;35163;48.878;18.040;2022-08-23T00:08:44;97982.53;;;17.09;100.00
49297;BME280;35163;48.878;18.040;2022-08-23T00:11:30;97985.25;;;17.07;100.00
49297;BME280;35163;48.878;18.040;2022-08-23T00:14:00;97989.47;;;17.10;100.00
49297;BME280;35163;48.878;18.040;2022-08-23T00:16:27;97991.31;;;17.08;100.00
49297;BME280;35163;48.878;18.040;2022-08-23T00:18:54;97998.19;;;17.09;100.00
49297;BME280;35163;48.878;18.040;2022-08-23T00:21:21;97988.53;;;17.11;100.00
49297;BME280;35163;48.878;18.040;2022-08-23T00:23:48;97986.44;;;17.16;100.00
49297;BME280;35163;48.878;18.040;2022-08-23T00:26:15;97982.06;;;17.17;100.00
49297;BME280;35163;48.878;18.040;2022-08-23T00:28:43;97983.44;;;17.22;100.00
49297;BME280;35163;48.878;18.040;2022-08-23T00:31:09;97981.03;;;17.19;100.00
49297;BME280;35163;48.878;18.040;2022-08-23T00:33:36;97989.59;;;17.21;100.00
49297;BME280;35163;48.878;18.040;2022-08-23T00:36:03;97992.00;;;17.24;100.00
49297;BME280;35163;48.878;18.040;2022-08-23T00:38:29;97987.53;;;17.27;100.00
49297;BME280;35163;48.878;18.040;2022-08-23T00:41:00;97982.31;;;17.27;100.00
49297;BME280;35163;48.878;18.040;2022-08-23T00:43:31;97987.31;;;17.30;100.00
49297;BME280;35163;48.878;18.040;2022-08-23T00:49:14;97978.53;;;17.31;100.00
49297;BME280;35163;48.878;18.040;2022-08-23T00:51:54;97978.44;;;17.32;100.00
49297;BME280;35163;48.878;18.040;2022-08-23T00:54:25;97982.84;;;17.32;100.00
49297;BME280;35163;48.878;18.040;2022-08-23T00:56:55;97977.72;;;17.30;100.00
49297;BME280;35163;48.878;18.040;2022-08-23T00:59:23;97982.09;;;17.30;100.00
49297;BME280;35163;48.878;18.040;2022-08-23T01:01:50;97983.16;;;17.27;100.00
49297;BME280;35163;48.878;18.040;2022-08-23T01:04:18;97984.38;;;17.21;100.00
49297;BME280;35163;48.878;18.040;2022-08-23T01:06:57;97987.72;;;17.23;100.00
49297;BME280;35163;48.878;18.040;2022-08-23T01:09:25;97991.25;;;17.22;100.00
49297;BME280;35163;48.878;18.040;2022-08-23T01:11:59;97991.25;;;17.22;100.00
49297;BME280;35163;48.878;18.040;2022-08-23T01:14:50;97990.72;;;17.17;100.00
49297;BME280;35163;48.878;18.040;2022-08-23T01:17:27;97993.97;;;17.21;100.00
49297;BME280;35163;48.878;18.040;2022-08-23T01:20:03;97990.72;;;17.17;100.00
49297;BME280;35163;48.878;18.040;2022-08-23T01:22:35;97996.16;;;17.14;100.00
49297;BME280;35163;48.878;18.040;2022-08-23T01:25:07;97992.31;;;17.20;100.00
49297;BME280;35163;48.878;18.040;2022-08-23T01:27:36;97997.66;;;17.18;100.00
49297;BME280;35163;48.878;18.040;2022-08-23T01:30:05;98003.78;;;17.17;100.00
49297;BME280;35163;48.878;18.040;2022-08-23T01:32:37;98001.50;;;17.12;100.00
49297;BME280;35163;48.878;18.040;2022-08-23T01:35:06;98001.75;;;17.08;100.00
49297;BME280;35163;48.878;18.040;2022-08-23T01:37:33;98006.97;;;17.08;100.00
49297;BME280;35163;48.878;18.040;2022-08-23T01:40:00;98003.72;;;17.04;100.00
49297;BME280;35163;48.878;18.040;2022-08-23T01:42:26;97996.75;;;17.05;100.00
49297;BME280;35163;48.878;18.040;2022-08-23T01:44:53;98002.88;;;17.04;100.00
49297;BME280;35163;48.878;18.040;2022-08-23T01:47:20;98002.88;;;17.04;100.00
49297;BME280;35163;48.878;18.040;2022-08-23T01:49:46;98008.84;;;17.06;100.00
49297;BME280;35163;48.878;18.040;2022-08-23T01:52:13;98008.00;;;17.05;100.00
49297;BME280;35163;48.878;18.040;2022-08-23T01:54:40;98008.97;;;17.04;100.00
49297;BME280;35163;48.878;18.040;2022-08-23T01:57:08;98002.88;;;17.04;100.00
49297;BME280;35163;48.878;18.040;2022-08-23T01:59:36;98003.63;;;17.06;100.00
49297;BME280;35163;48.878;18.040;2022-08-23T02:02:03;98005.69;;;17.00;100.00
49297;BME280;35163;48.878;18.040;2022-08-23T02:04:30;98006.34;;;17.04;100.00
49297;BME280;35163;48.878;18.040;2022-08-23T02:06:57;98008.97;;;17.04;100.00
49297;BME280;35163;48.878;18.040;2022-08-23T02:09:23;98013.97;;;17.07;100.00
49297;BME280;35163;48.878;18.040;2022-08-23T02:11:51;98016.25;;;17.14;100.00
49297;BME280;35163;48.878;18.040;2022-08-23T02:14:19;98019.09;;;17.09;100.00
49297;BME280;35163;48.878;18.040;2022-08-23T02:16:48;98027.25;;;17.04;100.00
49297;BME280;35163;48.878;18.040;2022-08-23T02:19:33;98029.75;;;17.06;100.00
49297;BME280;35163;48.878;18.040;2022-08-23T02:22:01;98028.34;;;17.00;100.00
49297;BME280;35163;48.878;18.040;2022-08-23T02:24:29;98030.88;;;17.01;100.00
49297;BME280;35163;48.878;18.040;2022-08-23T02:27:00;98025.75;;;17.00;100.00
49297;BME280;35163;48.878;18.040;2022-08-23T02:29:27;98017.81;;;17.01;100.00
49297;BME280;35163;48.878;18.040;2022-08-23T02:31:56;98018.00;;;16.98;100.00
49297;BME280;35163;48.878;18.040;2022-08-23T02:34:26;98010.47;;;16.94;100.00
49297;BME280;35163;48.878;18.040;2022-08-23T02:36:53;98023.25;;;16.98;100.00
49297;BME280;35163;48.878;18.040;2022-08-23T02:39:20;98028.66;;;16.95;100.00
49297;BME280;35163;48.878;18.040;2022-08-23T02:41:46;98035.75;;;16.93;100.00
49297;BME280;35163;48.878;18.040;2022-08-23T02:44:13;98030.06;;;17.01;100.00
49297;BME280;35163;48.878;18.040;2022-08-23T02:46:40;98027.34;;;17.03;100.00
49297;BME280;35163;48.878;18.040;2022-08-23T02:49:07;98028.66;;;16.95;100.00
49297;BME280;35163;48.878;18.040;2022-08-23T02:51:34;98042.66;;;16.94;100.00
49297;BME280;35163;48.878;18.040;2022-08-23T02:54:01;98040.59;;;16.99;100.00
49297;BME280;35163;48.878;18.040;2022-08-23T02:56:28;98043.47;;;16.95;100.00
49297;BME280;35163;48.878;18.040;2022-08-23T02:58:54;98045.47;;;16.91;100.00
49297;BME280;35163;48.878;18.040;2022-08-23T03:01:26;98034.28;;;16.89;100.00
49297;BME280;35163;48.878;18.040;2022-08-23T03:03:55;98037.28;;;16.83;100.00
49297;BME280;35163;48.878;18.040;2022-08-23T03:06:22;98030.84;;;16.88;100.00
49297;BME280;35163;48.878;18.040;2022-08-23T03:08:51;98037.19;;;16.84;100.00
49297;BME280;35163;48.878;18.040;2022-08-23T03:11:19;98039.88;;;16.83;100.00
49297;BME280;35163;48.878;18.040;2022-08-23T03:13:47;98048.25;;;16.88;100.00
49297;BME280;35163;48.878;18.040;2022-08-23T03:16:15;98055.94;;;16.91;100.00
49297;BME280;35163;48.878;18.040;2022-08-23T03:18:43;98050.09;;;17.00;100.00
49297;BME280;35163;48.878;18.040;2022-08-23T03:21:10;98057.72;;;17.04;100.00
49297;BME280;35163;48.878;18.040;2022-08-23T03:23:38;98061.50;;;16.99;100.00
49297;BME280;35163;48.878;18.040;2022-08-23T03:26:07;98049.16;;;17.01;100.00
49297;BME280;35163;48.878;18.040;2022-08-23T03:28:36;98061.09;;;17.06;100.00
49297;BME280;35163;48.878;18.040;2022-08-23T03:31:04;98065.38;;;17.07;100.00
49297;BME280;35163;48.878;18.040;2022-08-23T03:33:31;98056.06;;;17.03;100.00
49297;BME280;35163;48.878;18.040;2022-08-23T03:36:02;98060.00;;;16.95;100.00
49297;BME280;35163;48.878;18.040;2022-08-23T03:38:30;98052.91;;;16.97;100.00
49297;BME280;35163;48.878;18.040;2022-08-23T03:40:56;98056.06;;;17.03;100.00
49297;BME280;35163;48.878;18.040;2022-08-23T03:43:23;98062.41;;;17.13;100.00
49297;BME280;35163;48.878;18.040;2022-08-23T03:45:50;98055.94;;;17.19;100.00
49297;BME280;35163;48.878;18.040;2022-08-23T03:48:17;98067.56;;;17.28;100.00
49297;BME280;35163;48.878;18.040;2022-08-23T03:50:44;98068.00;;;17.34;100.00
49297;BME280;35163;48.878;18.040;2022-08-23T03:53:11;98070.16;;;17.28;100.00
49297;BME280;35163;48.878;18.040;2022-08-23T03:55:39;98075.19;;;17.31;100.00
49297;BME280;35163;48.878;18.040;2022-08-23T03:58:09;98072.78;;;17.28;100.00
49297;BME280;35163;48.878;18.040;2022-08-23T04:00:36;98079.28;;;17.35;100.00
49297;BME280;35163;48.878;18.040;2022-08-23T04:03:03;98074.59;;;17.40;100.00
49297;BME280;35163;48.878;18.040;2022-08-23T04:05:30;98075.34;;;17.42;100.00
49297;BME280;35163;48.878;18.040;2022-08-23T04:07:57;98078.41;;;17.49;100.00
49297;BME280;35163;48.878;18.040;2022-08-23T04:10:24;98085.28;;;17.50;100.00
49297;BME280;35163;48.878;18.040;2022-08-23T04:12:50;98082.56;;;17.52;100.00
49297;BME280;35163;48.878;18.040;2022-08-23T04:15:19;98080.91;;;17.51;100.00
49297;BME280;35163;48.878;18.040;2022-08-23T04:17:46;98083.56;;;17.36;100.00
49297;BME280;35163;48.878;18.040;2022-08-23T04:20:13;98087.75;;;17.26;100.00
49297;BME280;35163;48.878;18.040;2022-08-23T04:22:39;98085.03;;;17.27;100.00
49297;BME280;35163;48.878;18.040;2022-08-23T04:25:06;98089.41;;;17.27;100.00
49297;BME280;35163;48.878;18.040;2022-08-23T04:27:53;98092.22;;;17.23;100.00
49297;BME280;35163;48.878;18.040;2022-08-23T04:30:20;98092.97;;;17.26;100.00
49297;BME280;35163;48.878;18.040;2022-08-23T04:32:47;98095.91;;;17.34;100.00
49297;BME280;35163;48.878;18.040;2022-08-23T04:35:14;98090.09;;;17.43;100.00
49297;BME280;35163;48.878;18.040;2022-08-23T04:37:41;98097.56;;;17.63;100.00
49297;BME280;35163;48.878;18.040;2022-08-23T04:40:09;98103.97;;;17.71;100.00
49297;BME280;35163;48.878;18.040;2022-08-23T04:42:54;98108.13;;;17.61;100.00
49297;BME280;35163;48.878;18.040;2022-08-23T04:45:21;98105.72;;;17.58;100.00
49297;BME280;35163;48.878;18.040;2022-08-23T04:47:48;98103.47;;;17.52;100.00
49297;BME280;35163;48.878;18.040;2022-08-23T04:50:15;98106.84;;;17.54;100.00
49297;BME280;35163;48.878;18.040;2022-08-23T04:52:42;98108.81;;;17.50;100.00
49297;BME280;35163;48.878;18.040;2022-08-23T04:55:09;98114.25;;;17.47;100.00
49297;BME280;35163;48.878;18.040;2022-08-23T04:57:36;98117.59;;;17.49;100.00
49297;BME280;35163;48.878;18.040;2022-08-23T05:00:03;98121.34;;;17.45;100.00
49297;BME280;35163;48.878;18.040;2022-08-23T05:02:30;98120.53;;;17.44;100.00
49297;BME280;35163;48.878;18.040;2022-08-23T05:04:56;98121.66;;;17.40;100.00
49297;BME280;35163;48.878;18.040;2022-08-23T05:07:23;98117.91;;;17.44;100.00
49297;BME280;35163;48.878;18.040;2022-08-23T05:10:10;98116.28;;;17.56;100.00
49297;BME280;35163;48.878;18.040;2022-08-23T05:12:38;98120.56;;;17.57;100.00
49297;BME280;35163;48.878;18.040;2022-08-23T05:15:06;98123.06;;;17.59;100.00
49297;BME280;35163;48.878;18.040;2022-08-23T05:17:33;98126.09;;;17.53;100.00
49297;BME280;35163;48.878;18.040;2022-08-23T05:19:59;98122.31;;;17.57;100.00
49297;BME280;35163;48.878;18.040;2022-08-23T05:22:27;98121.31;;;17.72;100.00
49297;BME280;35163;48.878;18.040;2022-08-23T05:24:54;98126.09;;;17.66;100.00
49297;BME280;35163;48.878;18.040;2022-08-23T05:27:20;98126.53;;;17.72;100.00
49297;BME280;35163;48.878;18.040;2022-08-23T05:29:47;98124.56;;;17.76;100.00
49297;BME280;35163;48.878;18.040;2022-08-23T05:32:14;98134.31;;;17.87;100.00
49297;BME280;35163;48.878;18.040;2022-08-23T05:34:40;98128.47;;;17.83;100.00
49297;BME280;35163;48.878;18.040;2022-08-23T05:37:07;98134.34;;;18.00;100.00
49297;BME280;35163;48.878;18.040;2022-08-23T05:39:34;98135.94;;;18.03;100.00
49297;BME280;35163;48.878;18.040;2022-08-23T05:42:06;98141.22;;;17.88;100.00
49297;BME280;35163;48.878;18.040;2022-08-23T05:44:33;98137.03;;;17.85;100.00
49297;BME280;35163;48.878;18.040;2022-08-23T05:47:04;98148.19;;;17.75;100.00
49297;BME280;35163;48.878;18.040;2022-08-23T05:49:37;98146.59;;;17.59;100.00
49297;BME280;35163;48.878;18.040;2022-08-23T05:52:09;98147.13;;;17.64;100.00
49297;BME280;35163;48.878;18.040;2022-08-23T05:54:37;98142.38;;;17.84;100.00
49297;BME280;35163;48.878;18.040;2022-08-23T05:57:04;98144.06;;;17.98;100.00
49297;BME280;35163;48.878;18.040;2022-08-23T05:59:31;98152.66;;;18.00;100.00
49297;BME280;35163;48.878;18.040;2022-08-23T06:01:58;98147.31;;;18.02;100.00
49297;BME280;35163;48.878;18.040;2022-08-23T06:04:24;98142.50;;;17.95;100.00
49297;BME280;35163;48.878;18.040;2022-08-23T06:06:51;98141.34;;;18.00;100.00
49297;BME280;35163;48.878;18.040;2022-08-23T06:09:21;98147.38;;;18.15;100.00
49297;BME280;35163;48.878;18.040;2022-08-23T06:11:48;98146.63;;;18.26;100.00
49297;BME280;35163;48.878;18.040;2022-08-23T06:14:15;98149.03;;;18.29;100.00
49297;BME280;35163;48.878;18.040;2022-08-23T06:16:45;98149.31;;;18.11;100.00
49297;BME280;35163;48.878;18.040;2022-08-23T06:19:13;98156.34;;;18.24;100.00
49297;BME280;35163;48.878;18.040;2022-08-23T06:21:40;98160.97;;;18.33;100.00
49297;BME280;35163;48.878;18.040;2022-08-23T06:24:07;98154.47;;;18.26;100.00
49297;BME280;35163;48.878;18.040;2022-08-23T06:26:37;98160.03;;;18.34;100.00
49297;BME280;35163;48.878;18.040;2022-08-23T06:29:09;98154.69;;;18.49;100.00
49297;BME280;35163;48.878;18.040;2022-08-23T06:31:41;98156.66;;;18.58;100.00
49297;BME280;35163;48.878;18.040;2022-08-23T06:34:16;98157.00;;;18.66;100.00
49297;BME280;35163;48.878;18.040;2022-08-23T06:36:45;98157.72;;;18.68;100.00
49297;BME280;35163;48.878;18.040;2022-08-23T06:39:13;98162.03;;;18.69;100.00
49297;BME280;35163;48.878;18.040;2022-08-23T06:41:42;98162.94;;;18.68;100.00
49297;BME280;35163;48.878;18.040;2022-08-23T06:44:09;98159.47;;;18.81;100.00
49297;BME280;35163;48.878;18.040;2022-08-23T06:46:36;98156.75;;;19.58;100.00
49297;BME280;35163;48.878;18.040;2022-08-23T06:49:05;98162.53;;;21.15;100.00
49297;BME280;35163;48.878;18.040;2022-08-23T06:51:37;98161.34;;;22.49;87.06
49297;BME280;35163;48.878;18.040;2022-08-23T06:54:07;98171.13;;;23.61;81.38
49297;BME280;35163;48.878;18.040;2022-08-23T06:56:35;98163.91;;;24.60;77.16
49297;BME280;35163;48.878;18.040;2022-08-23T06:59:03;98167.09;;;23.66;78.86
49297;BME280;35163;48.878;18.040;2022-08-23T07:01:51;98167.22;;;22.94;82.73
49297;BME280;35163;48.878;18.040;2022-08-23T07:04:23;98169.06;;;21.98;88.46
49297;BME280;35163;48.878;18.040;2022-08-23T07:06:50;98161.78;;;21.57;92.89
49297;BME280;35163;48.878;18.040;2022-08-23T07:09:17;98166.31;;;21.67;88.90
49297;BME280;35163;48.878;18.040;2022-08-23T07:11:44;98175.28;;;21.20;92.72
49297;BME280;35163;48.878;18.040;2022-08-23T07:14:13;98172.56;;;20.98;94.95
49297;BME280;35163;48.878;18.040;2022-08-23T07:16:43;98172.91;;;20.59;99.38
49297;BME280;35163;48.878;18.040;2022-08-23T07:19:11;98171.81;;;20.39;100.00
49297;BME280;35163;48.878;18.040;2022-08-23T07:21:38;98175.94;;;20.19;100.00
49297;BME280;35163;48.878;18.040;2022-08-23T07:24:05;98180.75;;;20.00;100.00
49297;BME280;35163;48.878;18.040;2022-08-23T07:26:33;98179.63;;;20.16;100.00
49297;BME280;35163;48.878;18.040;2022-08-23T07:29:05;98183.16;;;20.03;100.00
49297;BME280;35163;48.878;18.040;2022-08-23T07:31:34;98184.06;;;20.15;100.00
49297;BME280;35163;48.878;18.040;2022-08-23T07:34:04;98183.47;;;20.23;99.21
49297;BME280;35163;48.878;18.040;2022-08-23T07:36:32;98185.19;;;20.36;100.00
49297;BME280;35163;48.878;18.040;2022-08-23T07:38:59;98190.06;;;20.40;100.00
49297;BME280;35163;48.878;18.040;2022-08-23T07:41:29;98199.81;;;20.27;100.00
49297;BME280;35163;48.878;18.040;2022-08-23T07:44:00;98197.81;;;20.31;100.00
49297;BME280;35163;48.878;18.040;2022-08-23T07:46:29;98207.03;;;20.48;100.00
49297;BME280;35163;48.878;18.040;2022-08-23T07:48:57;98215.66;;;20.73;100.00
49297;BME280;35163;48.878;18.040;2022-08-23T07:51:26;98216.16;;;21.12;98.12
49297;BME280;35163;48.878;18.040;2022-08-23T07:53:53;98232.41;;;21.06;96.24
49297;BME280;35163;48.878;18.040;2022-08-23T07:56:20;98224.75;;;21.15;94.91
49297;BME280;35163;48.878;18.040;2022-08-23T07:58:47;98230.69;;;21.51;92.98
49297;BME280;35163;48.878;18.040;2022-08-23T08:01:19;98226.75;;;21.45;94.96
49297;BME280;35163;48.878;18.040;2022-08-23T08:03:49;98229.75;;;21.41;94.77
49297;BME280;35163;48.878;18.040;2022-08-23T08:06:22;98232.75;;;21.24;97.46
49297;BME280;35163;48.878;18.040;2022-08-23T08:08:50;98225.69;;;21.25;95.57
49297;BME280;35163;48.878;18.040;2022-08-23T08:11:20;98238.34;;;21.31;95.44
49297;BME280;35163;48.878;18.040;2022-08-23T08:13:49;98239.84;;;21.57;90.68
49297;BME280;35163;48.878;18.040;2022-08-23T08:16:29;98241.59;;;21.91;89.68
49297;BME280;35163;48.878;18.040;2022-08-23T08:18:58;98248.63;;;22.23;87.13
49297;BME280;35163;48.878;18.040;2022-08-23T08:21:26;98240.75;;;22.23;89.74
49297;BME280;35163;48.878;18.040;2022-08-23T08:23:54;98248.19;;;22.18;89.22
49297;BME280;35163;48.878;18.040;2022-08-23T08:26:21;98252.44;;;22.30;88.88
49297;BME280;35163;48.878;18.040;2022-08-23T08:28:48;98249.34;;;22.25;84.22
49297;BME280;35163;48.878;18.040;2022-08-23T08:31:15;98255.25;;;21.84;86.26
49297;BME280;35163;48.878;18.040;2022-08-23T08:33:42;98261.53;;;21.49;92.24
49297;BME280;35163;48.878;18.040;2022-08-23T08:38:57;98272.47;;;21.66;90.16
49297;BME280;35163;48.878;18.040;2022-08-23T08:44:40;98280.47;;;21.76;88.76
49297;BME280;35163;48.878;18.040;2022-08-23T08:47:23;98276.03;;;21.76;90.79
49297;BME280;35163;48.878;18.040;2022-08-23T08:52:37;98278.97;;;21.50;89.95
49297;BME280;35163;48.878;18.040;2022-08-23T08:55:09;98276.00;;;21.43;89.97
49297;BME280;35163;48.878;18.040;2022-08-23T08:57:42;98282.81;;;21.46;89.30
49297;BME280;35163;48.878;18.040;2022-08-23T09:00:25;98282.00;;;21.34;88.36
49297;BME280;35163;48.878;18.040;2022-08-23T09:02:53;98282.59;;;21.15;92.67
49297;BME280;35163;48.878;18.040;2022-08-23T09:05:26;98287.84;;;21.15;93.32
49297;BME280;35163;48.878;18.040;2022-08-23T09:16:51;98285.63;;;21.89;88.21
49297;BME280;35163;48.878;18.040;2022-08-23T09:19:19;98281.91;;;22.24;84.84
49297;BME280;35163;48.878;18.040;2022-08-23T09:21:55;98280.00;;;22.48;84.23
49297;BME280;35163;48.878;18.040;2022-08-23T09:24:22;98286.56;;;22.75;83.41
49297;BME280;35163;48.878;18.040;2022-08-23T09:26:50;98287.63;;;22.93;82.00
49297;BME280;35163;48.878;18.040;2022-08-23T09:29:31;98289.03;;;22.98;79.67
49297;BME280;35163;48.878;18.040;2022-08-23T09:32:05;98294.16;;;23.30;77.93
49297;BME280;35163;48.878;18.040;2022-08-23T09:39:43;98293.03;;;23.54;80.54
49297;BME280;35163;48.878;18.040;2022-08-23T09:42:34;98297.31;;;23.46;80.34
49297;BME280;35163;48.878;18.040;2022-08-23T09:45:25;98294.88;;;23.33;81.77
49297;BME280;35163;48.878;18.040;2022-08-23T09:47:54;98291.03;;;23.37;81.34
49297;BME280;35163;48.878;18.040;2022-08-23T09:50:30;98288.50;;;23.35;79.03
49297;BME280;35163;48.878;18.040;2022-08-23T09:53:02;98282.38;;;23.25;78.30
49297;BME280;35163;48.878;18.040;2022-08-23T09:55:33;98291.31;;;23.02;80.53
49297;BME280;35163;48.878;18.040;2022-08-23T09:58:05;98284.97;;;22.84;81.75
49297;BME280;35163;48.878;18.040;2022-08-23T10:00:36;98288.13;;;23.09;80.64
49297;BME280;35163;48.878;18.040;2022-08-23T10:03:25;98292.63;;;23.18;82.35
49297;BME280;35163;48.878;18.040;2022-08-23T10:05:55;98295.28;;;23.59;79.91
49297;BME280;35163;48.878;18.040;2022-08-23T10:08:25;98299.00;;;23.47;79.95
49297;BME280;35163;48.878;18.040;2022-08-23T10:11:20;98298.72;;;23.50;79.69
49297;BME280;35163;48.878;18.040;2022-08-23T10:13:50;98302.78;;;23.64;77.66
49297;BME280;35163;48.878;18.040;2022-08-23T10:16:36;98298.81;;;23.99;77.12
49297;BME280;35163;48.878;18.040;2022-08-23T10:19:18;98298.69;;;24.41;75.92
49297;BME280;35163;48.878;18.040;2022-08-23T10:24:45;98298.03;;;24.86;72.94
49297;BME280;35163;48.878;18.040;2022-08-23T10:30:27;98303.81;;;24.62;72.22
49297;BME280;35163;48.878;18.040;2022-08-23T10:33:09;98307.75;;;24.38;73.93
49297;BME280;35163;48.878;18.040;2022-08-23T10:36:07;98305.19;;;24.66;75.76
49297;BME280;35163;48.878;18.040;2022-08-23T10:41:21;98295.72;;;24.73;69.64
49297;BME280;35163;48.878;18.040;2022-08-23T10:44:32;98307.53;;;24.69;70.92
49297;BME280;35163;48.878;18.040;2022-08-23T10:47:06;98306.03;;;24.67;72.03
49297;BME280;35163;48.878;18.040;2022-08-23T10:49:38;98305.47;;;24.63;72.22
49297;BME280;35163;48.878;18.040;2022-08-23T10:52:08;98303.63;;;24.83;72.27
49297;BME280;35163;48.878;18.040;2022-08-23T10:54:52;98307.81;;;24.96;73.86
49297;BME280;35163;48.878;18.040;2022-08-23T10:57:34;98299.75;;;24.68;71.74
49297;BME280;35163;48.878;18.040;2022-08-23T11:00:07;98299.38;;;24.52;71.57
49297;BME280;35163;48.878;18.040;2022-08-23T11:02:54;98302.72;;;24.35;73.96
49297;BME280;35163;48.878;18.040;2022-08-23T11:05:26;98299.41;;;24.43;72.34
49297;BME280;35163;48.878;18.040;2022-08-23T11:08:06;98296.97;;;24.69;72.10
49297;BME280;35163;48.878;18.040;2022-08-23T11:13:24;98307.06;;;25.04;70.89
49297;BME280;35163;48.878;18.040;2022-08-23T11:15:56;98306.50;;;25.10;70.55
49297;BME280;35163;48.878;18.040;2022-08-23T11:18:43;98299.66;;;25.17;70.96
49297;BME280;35163;48.878;18.040;2022-08-23T11:24:27;98307.41;;;25.29;69.64
49297;BME280;35163;48.878;18.040;2022-08-23T11:34:32;98301.69;;;25.62;71.24
49297;BME280;35163;48.878;18.040;2022-08-23T11:48:01;98302.50;;;26.08;67.95
49297;BME280;35163;48.878;18.040;2022-08-23T12:05:21;98307.81;;;26.27;67.50
49297;BME280;35163;48.878;18.040;2022-08-23T12:21:24;98317.34;;;26.01;63.88
49297;BME280;35163;48.878;18.040;2022-08-23T12:23:56;98320.00;;;26.01;65.77
49297;BME280;35163;48.878;18.040;2022-08-23T12:26:47;98320.53;;;26.23;66.40
49297;BME280;35163;48.878;18.040;2022-08-23T12:29:32;98321.44;;;26.32;67.79
49297;BME280;35163;48.878;18.040;2022-08-23T12:32:21;98322.50;;;26.39;66.95
49297;BME280;35163;48.878;18.040;2022-08-23T12:37:40;98318.63;;;26.52;66.58
49297;BME280;35163;48.878;18.040;2022-08-23T12:40:14;98325.88;;;26.50;65.81
49297;BME280;35163;48.878;18.040;2022-08-23T12:42:41;98317.78;;;26.33;67.81
49297;BME280;35163;48.878;18.040;2022-08-23T12:45:21;98315.09;;;26.06;67.52
49297;BME280;35163;48.878;18.040;2022-08-23T12:48:00;98317.38;;;25.91;67.82
49297;BME280;35163;48.878;18.040;2022-08-23T12:50:34;98319.66;;;25.86;68.55
49297;BME280;35163;48.878;18.040;2022-08-23T12:53:16;98316.78;;;25.79;69.51
49297;BME280;35163;48.878;18.040;2022-08-23T12:55:51;98316.66;;;25.99;66.35
49297;BME280;35163;48.878;18.040;2022-08-23T12:58:27;98319.00;;;25.84;66.56
49297;BME280;35163;48.878;18.040;2022-08-23T13:01:02;98328.91;;;25.82;67.16
49297;BME280;35163;48.878;18.040;2022-08-23T13:03:33;98316.56;;;25.63;64.17
49297;BME280;35163;48.878;18.040;2022-08-23T13:06:06;98308.38;;;25.56;65.14
49297;BME280;35163;48.878;18.040;2022-08-23T13:11:06;98301.31;;;25.46;66.37
49297;BME280;35163;48.878;18.040;2022-08-23T13:13:37;98311.66;;;25.40;66.68
49297;BME280;35163;48.878;18.040;2022-08-23T13:19:31;98307.31;;;25.10;67.75
49297;BME280;35163;48.878;18.040;2022-08-23T13:22:18;98309.13;;;25.20;67.82
49297;BME280;35163;48.878;18.040;2022-08-23T13:25:08;98304.78;;;25.29;67.95
49297;BME280;35163;48.878;18.040;2022-08-23T13:28:25;98303.22;;;25.36;66.80
49297;BME280;35163;48.878;18.040;2022-08-23T13:31:04;98309.22;;;25.56;67.15
49297;BME280;35163;48.878;18.040;2022-08-23T13:33:33;98312.88;;;25.17;67.40
49297;BME280;35163;48.878;18.040;2022-08-23T13:36:20;98312.91;;;25.07;68.05
49297;BME280;35163;48.878;18.040;2022-08-23T13:38:47;98316.59;;;25.24;68.76
49297;BME280;35163;48.878;18.040;2022-08-23T13:41:30;98311.41;;;25.43;70.07
49297;BME280;35163;48.878;18.040;2022-08-23T13:44:06;98310.78;;;25.49;70.08
49297;BME280;35163;48.878;18.040;2022-08-23T13:46:42;98314.28;;;25.50;65.74
49297;BME280;35163;48.878;18.040;2022-08-23T13:49:13;98306.34;;;25.50;66.91
49297;BME280;35163;48.878;18.040;2022-08-23T13:54:46;98306.81;;;25.35;68.14
49297;BME280;35163;48.878;18.040;2022-08-23T13:57:18;98310.84;;;25.39;66.71
49297;BME280;35163;48.878;18.040;2022-08-23T13:59:50;98300.97;;;25.31;68.11
49297;BME280;35163;48.878;18.040;2022-08-23T14:02:19;98298.78;;;25.27;69.07
49297;BME280;35163;48.878;18.040;2022-08-23T14:04:47;98293.84;;;25.14;69.76
49297;BME280;35163;48.878;18.040;2022-08-23T14:07:14;98298.84;;;25.17;70.03
49297;BME280;35163;48.878;18.040;2022-08-23T14:09:41;98300.59;;;25.26;70.34
49297;BME280;35163;48.878;18.040;2022-08-23T14:12:14;98296.63;;;25.40;69.45
49297;BME280;35163;48.878;18.040;2022-08-23T14:14:43;98291.38;;;25.58;67.03
49297;BME280;35163;48.878;18.040;2022-08-23T14:17:11;98298.03;;;25.63;67.92
49297;BME280;35163;48.878;18.040;2022-08-23T14:19:43;98295.94;;;25.38;67.12
49297;BME280;35163;48.878;18.040;2022-08-23T14:22:33;98300.28;;;25.39;67.06
49297;BME280;35163;48.878;18.040;2022-08-23T14:25:00;98296.22;;;25.35;69.09
49297;BME280;35163;48.878;18.040;2022-08-23T14:27:26;98301.31;;;25.46;68.27
49297;BME280;35163;48.878;18.040;2022-08-23T14:29:53;98299.47;;;25.57;68.26
49297;BME280;35163;48.878;18.040;2022-08-23T14:32:20;98303.34;;;25.63;68.15
49297;BME280;35163;48.878;18.040;2022-08-23T14:34:47;98301.00;;;25.59;67.31
49297;BME280;35163;48.878;18.040;2022-08-23T14:37:13;98307.94;;;25.60;67.89
49297;BME280;35163;48.878;18.040;2022-08-23T14:40:00;98312.25;;;25.71;67.73
49297;BME280;35163;48.878;18.040;2022-08-23T14:42:27;98311.31;;;25.81;66.02
49297;BME280;35163;48.878;18.040;2022-08-23T14:44:54;98316.53;;;25.72;64.92